createdAt,value
2023-05-10T00:01:29.581Z,60.60
2023-05-10T00:03:56.566Z,60.70
2023-05-10T00:06:23.557Z,60.80
2023-05-10T00:08:50.482Z,61.20
2023-05-10T00:11:17.375Z,61.30
2023-05-10T00:13:44.282Z,61.30
2023-05-10T00:16:11.246Z,61.60
2023-05-10T00:18:38.174Z,61.60
2023-05-10T00:21:05.866Z,61.90
2023-05-10T00:23:32.823Z,61.90
2023-05-10T00:25:59.725Z,62.00
2023-05-10T00:28:29.353Z,62.00
2023-05-10T00:30:57.184Z,62.30
2023-05-10T00:33:24.150Z,62.20
2023-05-10T00:35:51.099Z,62.40
2023-05-10T00:38:18.456Z,62.80
2023-05-10T00:40:45.380Z,62.90
2023-05-10T00:43:20.143Z,63.00
2023-05-10T00:45:48.257Z,63.10
2023-05-10T00:48:15.281Z,63.30
2023-05-10T00:50:42.280Z,63.50
2023-05-10T00:53:09.892Z,63.80
2023-05-10T00:55:37.282Z,64.00
2023-05-10T00:58:05.029Z,64.40
2023-05-10T01:00:33.915Z,64.40
2023-05-10T01:03:01.657Z,64.50
2023-05-10T01:05:28.682Z,64.60
2023-05-10T01:07:55.698Z,65.90
2023-05-10T01:10:22.956Z,65.50
2023-05-10T01:12:49.945Z,65.50
2023-05-10T01:15:17.795Z,65.60
2023-05-10T01:17:47.107Z,65.80
2023-05-10T01:20:15.153Z,66.10
2023-05-10T01:23:11.779Z,66.40
2023-05-10T01:26:56.630Z,66.70
2023-05-10T01:29:42.241Z,67.10
2023-05-10T01:32:30.593Z,67.40
2023-05-10T01:35:24.322Z,67.60
2023-05-10T01:38:20.214Z,67.90
2023-05-10T01:41:13.300Z,68.10
2023-05-10T01:44:01.653Z,68.10
2023-05-10T01:46:40.903Z,68.30
2023-05-10T01:49:19.639Z,68.60
2023-05-10T01:51:55.774Z,68.70
2023-05-10T01:54:25.215Z,68.90
2023-05-10T01:57:01.286Z,69.20
2023-05-10T01:59:37.178Z,69.20
2023-05-10T02:02:07.015Z,69.50
2023-05-10T02:04:38.422Z,69.70
2023-05-10T02:07:07.152Z,69.70
2023-05-10T02:09:35.717Z,69.80
2023-05-10T02:12:05.204Z,70.30
2023-05-10T02:14:37.176Z,70.40
2023-05-10T02:17:06.341Z,70.30
2023-05-10T02:19:35.413Z,70.40
2023-05-10T02:22:03.555Z,70.20
2023-05-10T02:24:31.160Z,70.40
2023-05-10T02:26:58.722Z,70.20
2023-05-10T02:29:27.917Z,70.50
2023-05-10T02:31:56.892Z,70.90
2023-05-10T02:34:26.863Z,71.20
2023-05-10T02:36:55.080Z,70.80
2023-05-10T02:39:23.421Z,71.20
2023-05-10T02:41:52.238Z,71.90
2023-05-10T02:44:21.010Z,72.00
2023-05-10T02:46:48.870Z,72.10
2023-05-10T02:49:16.606Z,72.40
2023-05-10T02:51:49.029Z,72.70
2023-05-10T02:54:28.656Z,72.80
2023-05-10T02:57:00.478Z,73.40
2023-05-10T02:59:28.170Z,73.60
2023-05-10T03:01:55.317Z,73.50
2023-05-10T03:04:22.747Z,73.70
2023-05-10T03:06:49.864Z,73.80
2023-05-10T03:09:16.857Z,74.10
2023-05-10T03:12:08.120Z,74.20
2023-05-10T03:14:55.151Z,74.70
2023-05-10T03:17:47.800Z,74.50
2023-05-10T03:20:26.233Z,74.90
2023-05-10T03:22:58.467Z,75.10
2023-05-10T03:25:25.722Z,75.00
2023-05-10T03:27:55.108Z,74.80
2023-05-10T03:30:22.703Z,75.40
2023-05-10T03:32:49.675Z,75.40
2023-05-10T03:35:18.529Z,75.60
2023-05-10T03:37:45.641Z,75.70
2023-05-10T03:40:12.774Z,75.50
2023-05-10T03:42:42.263Z,75.50
2023-05-10T03:45:10.672Z,75.70
2023-05-10T03:47:37.726Z,76.10
2023-05-10T03:50:05.911Z,75.90
2023-05-10T03:52:33.612Z,75.90
2023-05-10T03:55:00.528Z,76.10
2023-05-10T03:57:27.561Z,76.30
2023-05-10T03:59:54.493Z,76.50
2023-05-10T04:02:21.405Z,76.50
2023-05-10T04:04:49.213Z,76.40
2023-05-10T04:07:16.130Z,77.00
2023-05-10T04:09:43.104Z,77.20
2023-05-10T04:12:10.954Z,77.20
2023-05-10T04:14:38.299Z,77.00
2023-05-10T04:17:05.270Z,76.90
2023-05-10T04:19:33.038Z,76.40
2023-05-10T04:22:00.255Z,75.60
2023-05-10T04:24:27.170Z,75.10
2023-05-10T04:26:57.780Z,74.80
2023-05-10T04:29:25.153Z,74.40
2023-05-10T04:31:52.089Z,73.70
2023-05-10T04:34:19.525Z,73.60
2023-05-10T04:36:46.421Z,73.40
2023-05-10T04:39:14.659Z,73.00
2023-05-10T04:41:41.569Z,73.30
2023-05-10T04:44:08.433Z,73.00
2023-05-10T04:46:35.421Z,73.10
2023-05-10T04:49:02.533Z,72.80
2023-05-10T04:51:29.417Z,72.90
2023-05-10T04:54:05.217Z,72.80
2023-05-10T04:56:33.235Z,72.60
2023-05-10T04:59:00.133Z,72.50
2023-05-10T05:01:27.143Z,72.50
2023-05-10T05:03:54.393Z,72.60
2023-05-10T05:06:25.880Z,72.70
2023-05-10T05:08:52.939Z,72.40
2023-05-10T05:11:19.833Z,72.10
2023-05-10T05:13:46.705Z,72.10
2023-05-10T05:16:13.777Z,72.00
2023-05-10T05:18:40.767Z,71.70
2023-05-10T05:21:17.691Z,71.60
2023-05-10T05:23:44.770Z,72.00
2023-05-10T05:26:11.819Z,71.30
2023-05-10T05:28:39.774Z,71.60
2023-05-10T05:31:10.201Z,71.60
2023-05-10T05:33:37.953Z,70.90
2023-05-10T05:36:06.603Z,71.10
2023-05-10T05:38:33.603Z,70.40
2023-05-10T05:41:00.528Z,70.90
2023-05-10T05:43:27.450Z,70.30
2023-05-10T05:45:54.992Z,70.40
2023-05-10T05:48:22.240Z,70.30
2023-05-10T05:50:49.111Z,70.00
2023-05-10T05:53:16.716Z,69.80
2023-05-10T05:55:55.151Z,69.80
2023-05-10T05:58:26.112Z,69.10
2023-05-10T06:00:53.599Z,68.80
2023-05-10T06:03:21.114Z,68.80
2023-05-10T06:05:48.078Z,68.20
2023-05-10T06:08:14.931Z,68.40
2023-05-10T06:10:41.776Z,69.10
2023-05-10T06:13:08.745Z,68.30
2023-05-10T06:15:35.681Z,68.00
2023-05-10T06:18:02.573Z,67.60
2023-05-10T06:20:29.509Z,67.80
2023-05-10T06:22:56.386Z,67.50
2023-05-10T06:25:23.259Z,67.20
2023-05-10T06:27:52.901Z,67.30
2023-05-10T06:30:21.199Z,66.40
2023-05-10T06:32:48.166Z,66.50
2023-05-10T06:35:15.333Z,66.40
2023-05-10T06:37:42.365Z,66.00
2023-05-10T06:40:10.320Z,66.30
2023-05-10T06:42:37.313Z,66.60
2023-05-10T06:45:04.730Z,66.70
2023-05-10T06:47:31.704Z,65.90
2023-05-10T06:49:58.619Z,65.50
2023-05-10T06:52:25.568Z,65.60
2023-05-10T06:54:52.427Z,66.00
2023-05-10T06:57:30.413Z,65.40
2023-05-10T06:59:58.467Z,65.00
2023-05-10T07:02:25.373Z,65.10
2023-05-10T07:04:53.029Z,65.10
2023-05-10T07:07:20.190Z,65.00
2023-05-10T07:09:47.328Z,65.30
2023-05-10T07:12:15.414Z,65.20
2023-05-10T07:14:43.222Z,65.20
2023-05-10T07:17:10.874Z,65.70
2023-05-10T07:19:37.818Z,64.70
2023-05-10T07:22:04.744Z,64.50
2023-05-10T07:24:32.272Z,64.90
2023-05-10T07:26:59.289Z,64.60
2023-05-10T07:29:26.420Z,65.10
2023-05-10T07:31:54.479Z,64.50
2023-05-10T07:34:22.407Z,63.90
2023-05-10T07:36:49.297Z,63.50
2023-05-10T07:39:21.332Z,63.60
2023-05-10T07:41:53.833Z,62.30
2023-05-10T07:44:21.349Z,63.10
2023-05-10T07:46:49.027Z,61.60
2023-05-10T07:49:16.055Z,61.50
2023-05-10T07:51:43.500Z,61.60
2023-05-10T07:54:10.463Z,62.70
2023-05-10T07:56:37.405Z,61.20
2023-05-10T07:59:07.354Z,61.40
2023-05-10T08:01:35.545Z,62.50
2023-05-10T08:04:03.255Z,61.80
2023-05-10T08:06:31.059Z,62.50
2023-05-10T08:08:58.197Z,62.30
2023-05-10T08:11:25.738Z,62.30
2023-05-10T08:13:52.857Z,61.50
2023-05-10T08:16:19.821Z,61.70
2023-05-10T08:18:47.957Z,61.60
2023-05-10T08:21:15.777Z,62.10
2023-05-10T08:23:44.572Z,60.80
2023-05-10T08:26:11.759Z,61.60
2023-05-10T08:28:38.774Z,61.60
2023-05-10T08:31:06.256Z,60.60
2023-05-10T08:33:33.362Z,59.80
2023-05-10T08:36:00.301Z,59.90
2023-05-10T08:38:27.169Z,60.20
2023-05-10T08:40:59.646Z,59.70
2023-05-10T08:43:30.938Z,59.30
2023-05-10T08:46:02.321Z,59.90
2023-05-10T08:48:31.787Z,60.20
2023-05-10T08:51:01.003Z,59.60
2023-05-10T08:53:29.829Z,59.30
2023-05-10T08:55:56.824Z,58.30
2023-05-10T08:58:23.858Z,58.70
2023-05-10T09:00:53.988Z,58.10
2023-05-10T09:03:21.124Z,58.40
2023-05-10T09:05:49.490Z,57.90
2023-05-10T09:08:17.390Z,57.80
2023-05-10T09:10:49.306Z,57.80
2023-05-10T09:13:16.740Z,57.80
2023-05-10T09:15:45.709Z,57.80
2023-05-10T09:18:13.236Z,57.40
2023-05-10T09:20:40.331Z,57.00
2023-05-10T09:23:07.860Z,55.90
2023-05-10T09:25:34.807Z,56.00
2023-05-10T09:28:01.726Z,56.50
2023-05-10T09:30:31.609Z,56.00
2023-05-10T09:33:00.817Z,55.90
2023-05-10T09:35:31.227Z,55.80
2023-05-10T09:38:05.145Z,55.20
2023-05-10T09:40:32.653Z,54.60
2023-05-10T09:43:11.778Z,55.70
2023-05-10T09:45:39.303Z,55.00
2023-05-10T09:48:07.030Z,54.60
2023-05-10T09:50:35.111Z,54.50
2023-05-10T09:53:04.544Z,54.60
2023-05-10T09:55:42.355Z,55.50
2023-05-10T09:58:11.827Z,54.50
2023-05-10T10:00:41.827Z,53.40
2023-05-10T10:03:18.049Z,53.50
2023-05-10T10:05:47.144Z,53.60
2023-05-10T10:08:14.902Z,53.90
2023-05-10T10:10:42.449Z,52.60
2023-05-10T10:13:09.639Z,52.90
2023-05-10T10:15:36.970Z,52.40
2023-05-10T10:18:07.570Z,53.30
2023-05-10T10:20:34.772Z,52.80
2023-05-10T10:23:01.656Z,52.90
2023-05-10T10:25:28.563Z,53.20
2023-05-10T10:27:55.386Z,51.90
2023-05-10T10:30:43.551Z,52.10
2023-05-10T10:33:37.739Z,52.00
2023-05-10T10:36:05.689Z,52.20
2023-05-10T10:38:48.136Z,51.60
2023-05-10T10:41:41.972Z,51.40
2023-05-10T10:44:24.495Z,50.90
2023-05-10T10:47:13.281Z,51.00
2023-05-10T10:49:49.816Z,50.90
2023-05-10T10:52:24.093Z,51.10
2023-05-10T10:55:03.989Z,51.10
2023-05-10T10:57:41.214Z,51.20
2023-05-10T11:00:25.125Z,50.10
2023-05-10T11:03:15.601Z,50.50
2023-05-10T11:05:50.314Z,50.10
2023-05-10T11:08:30.964Z,50.80
2023-05-10T11:11:00.685Z,50.40
2023-05-10T11:13:47.718Z,50.80
2023-05-10T11:16:24.767Z,50.50
2023-05-10T11:19:06.918Z,50.70
2023-05-10T11:21:35.318Z,50.30
2023-05-10T11:24:06.886Z,49.90
2023-05-10T11:26:36.758Z,49.60
2023-05-10T11:29:05.846Z,50.40
2023-05-10T11:31:32.732Z,50.60
2023-05-10T11:34:02.718Z,50.30
2023-05-10T11:36:34.421Z,49.60
2023-05-10T11:39:01.405Z,50.10
2023-05-10T11:41:31.020Z,49.00
2023-05-10T11:43:59.429Z,49.40
2023-05-10T11:46:28.525Z,49.00
2023-05-10T11:49:02.882Z,47.80
2023-05-10T11:51:30.173Z,47.50
2023-05-10T11:53:58.181Z,46.90
2023-05-10T11:56:27.097Z,46.40
2023-05-10T11:58:57.262Z,46.10
2023-05-10T12:01:28.726Z,46.30
2023-05-10T12:04:00.553Z,46.10
2023-05-10T12:06:33.144Z,46.10
2023-05-10T12:09:00.580Z,46.40
2023-05-10T12:11:29.476Z,47.10
2023-05-10T12:13:57.535Z,46.00
2023-05-10T12:16:29.499Z,46.10
2023-05-10T12:19:01.404Z,45.70
2023-05-10T12:21:31.365Z,46.30
2023-05-10T12:24:04.061Z,46.50
2023-05-10T12:26:31.095Z,45.90
2023-05-10T12:29:18.050Z,46.20
2023-05-10T12:31:56.585Z,45.90
2023-05-10T12:34:33.102Z,45.70
2023-05-10T12:37:00.701Z,45.90
2023-05-10T12:39:39.618Z,45.70
2023-05-10T12:42:07.165Z,45.30
2023-05-10T12:44:34.060Z,45.40
2023-05-10T12:47:00.901Z,45.50
2023-05-10T12:49:27.896Z,46.00
2023-05-10T12:51:54.795Z,45.30
2023-05-10T12:54:21.631Z,45.30
2023-05-10T12:56:48.464Z,46.10
2023-05-10T12:59:15.303Z,46.10
2023-05-10T13:01:42.283Z,46.00
2023-05-10T13:04:09.261Z,46.00
2023-05-10T13:06:36.132Z,46.20
2023-05-10T13:09:03.374Z,46.80
2023-05-10T13:11:30.357Z,47.10
2023-05-10T13:13:57.199Z,47.10
2023-05-10T13:16:24.109Z,46.70
2023-05-10T13:18:51.610Z,46.30
2023-05-10T13:21:18.515Z,46.30
2023-05-10T13:23:45.388Z,46.30
2023-05-10T13:26:12.226Z,46.40
2023-05-10T13:28:39.773Z,47.20
2023-05-10T13:31:06.669Z,47.20
2023-05-10T13:33:33.560Z,47.00
2023-05-10T13:36:00.437Z,46.50
2023-05-10T13:38:27.315Z,46.00
2023-05-10T13:40:54.258Z,45.80
2023-05-10T13:43:21.193Z,46.00
2023-05-10T13:45:48.152Z,45.90
2023-05-10T13:48:15.069Z,46.40
2023-05-10T13:50:42.015Z,46.00
2023-05-10T13:53:08.886Z,46.00
2023-05-10T13:55:36.093Z,46.30
2023-05-10T13:58:02.981Z,46.10
2023-05-10T14:00:29.895Z,45.70
2023-05-10T14:02:56.791Z,45.40
2023-05-10T14:05:26.200Z,45.60
2023-05-10T14:07:53.394Z,46.00
2023-05-10T14:10:20.299Z,46.10
2023-05-10T14:12:47.159Z,45.90
2023-05-10T14:15:14.048Z,45.70
2023-05-10T14:17:40.959Z,45.20
2023-05-10T14:20:09.336Z,45.90
2023-05-10T14:22:36.437Z,45.60
2023-05-10T14:25:03.550Z,45.90
2023-05-10T14:27:31.334Z,45.80
2023-05-10T14:29:58.307Z,45.70
2023-05-10T14:32:25.197Z,45.70
2023-05-10T14:34:52.054Z,45.70
2023-05-10T14:37:18.920Z,45.40
2023-05-10T14:39:45.771Z,45.30
2023-05-10T14:42:13.220Z,45.50
2023-05-10T14:44:40.649Z,45.20
2023-05-10T14:47:07.836Z,44.90
2023-05-10T14:49:35.726Z,45.50
2023-05-10T14:52:02.611Z,45.80
2023-05-10T14:54:29.475Z,46.00
2023-05-10T14:56:56.315Z,45.20
2023-05-10T14:59:23.189Z,45.50
2023-05-10T15:01:50.412Z,44.90
2023-05-10T15:04:17.866Z,45.10
2023-05-10T15:06:45.464Z,44.80
2023-05-10T15:09:12.313Z,44.80
2023-05-10T15:11:39.225Z,44.80
2023-05-10T15:14:06.087Z,45.10
2023-05-10T15:16:35.702Z,44.80
2023-05-10T15:19:03.110Z,44.50
2023-05-10T15:21:31.726Z,44.20
2023-05-10T15:23:58.613Z,44.10
2023-05-10T15:26:27.204Z,44.10
2023-05-10T15:28:54.157Z,44.40
2023-05-10T15:31:21.120Z,44.60
2023-05-10T15:33:48.092Z,44.60
2023-05-10T15:36:14.970Z,44.40
2023-05-10T15:38:41.858Z,44.30
2023-05-10T15:41:08.735Z,44.20
2023-05-10T15:43:35.621Z,44.40
2023-05-10T15:46:02.588Z,44.10
2023-05-10T15:48:32.232Z,44.30
2023-05-10T15:50:59.195Z,43.50
2023-05-10T15:53:26.097Z,44.00
2023-05-10T15:55:53.021Z,44.00
2023-05-10T15:58:19.972Z,44.10
2023-05-10T16:00:47.073Z,43.80
2023-05-10T16:03:14.018Z,44.10
2023-05-10T16:05:41.092Z,44.70
2023-05-10T16:08:08.010Z,44.70
2023-05-10T16:10:34.926Z,44.80
2023-05-10T16:13:03.688Z,44.80
2023-05-10T16:15:30.593Z,44.40
2023-05-10T16:17:58.030Z,44.40
2023-05-10T16:20:25.227Z,44.60
2023-05-10T16:22:52.126Z,44.70
2023-05-10T16:25:19.271Z,45.00
2023-05-10T16:27:46.396Z,45.40
2023-05-10T16:30:13.389Z,44.50
2023-05-10T16:32:40.270Z,44.40
2023-05-10T16:35:08.153Z,44.50
2023-05-10T16:37:35.829Z,45.10
2023-05-10T16:40:03.051Z,44.40
2023-05-10T16:42:30.480Z,44.20
2023-05-10T16:44:57.491Z,44.00
2023-05-10T16:47:26.721Z,43.70
2023-05-10T16:49:53.819Z,43.30
2023-05-10T16:52:20.711Z,42.70
2023-05-10T16:54:47.589Z,42.80
2023-05-10T16:57:14.475Z,43.00
2023-05-10T16:59:41.411Z,42.70
2023-05-10T17:02:08.409Z,42.10
2023-05-10T17:04:35.518Z,41.90
2023-05-10T17:07:02.426Z,41.30
2023-05-10T17:09:29.355Z,41.10
2023-05-10T17:11:56.375Z,41.10
2023-05-10T17:14:23.438Z,41.50
2023-05-10T17:16:52.669Z,41.20
2023-05-10T17:19:19.756Z,41.00
2023-05-10T17:21:46.733Z,40.50
2023-05-10T17:24:14.282Z,40.80
2023-05-10T17:26:41.832Z,40.90
2023-05-10T17:29:08.857Z,40.30
2023-05-10T17:31:35.759Z,40.80
2023-05-10T17:34:05.475Z,41.00
2023-05-10T17:36:33.340Z,41.40
2023-05-10T17:39:00.922Z,41.90
2023-05-10T17:41:27.900Z,42.40
2023-05-10T17:43:55.354Z,42.70
2023-05-10T17:46:22.388Z,43.00
2023-05-10T17:48:49.435Z,43.40
2023-05-10T17:51:16.336Z,43.80
2023-05-10T17:53:43.232Z,44.20
2023-05-10T17:56:10.122Z,44.50
2023-05-10T17:58:38.314Z,44.80
2023-05-10T18:01:05.737Z,45.30
2023-05-10T18:03:32.942Z,45.70
2023-05-10T18:06:00.066Z,45.90
2023-05-10T18:08:28.663Z,46.30
2023-05-10T18:10:55.580Z,46.30
2023-05-10T18:13:22.492Z,47.00
2023-05-10T18:15:49.365Z,47.10
2023-05-10T18:18:17.355Z,47.60
2023-05-10T18:20:46.146Z,47.70
2023-05-10T18:23:14.182Z,47.90
2023-05-10T18:25:41.056Z,48.30
2023-05-10T18:28:08.620Z,48.30
2023-05-10T18:30:35.490Z,48.70
2023-05-10T18:33:02.659Z,48.60
2023-05-10T18:35:29.601Z,48.70
2023-05-10T18:37:56.506Z,48.90
2023-05-10T18:40:23.357Z,49.00
2023-05-10T18:42:50.590Z,49.10
2023-05-10T18:45:17.747Z,49.30
2023-05-10T18:47:44.860Z,49.40
2023-05-10T18:50:12.817Z,49.40
2023-05-10T18:52:39.732Z,49.50
2023-05-10T18:55:08.432Z,49.70
2023-05-10T18:57:41.412Z,50.30
2023-05-10T19:00:12.304Z,50.30
2023-05-10T19:02:40.198Z,50.30
2023-05-10T19:05:08.162Z,51.20
2023-05-10T19:07:35.938Z,51.70
2023-05-10T19:10:03.297Z,51.30
2023-05-10T19:12:30.928Z,51.90
2023-05-10T19:14:57.835Z,52.00
2023-05-10T19:17:24.774Z,52.10
2023-05-10T19:19:51.677Z,51.90
2023-05-10T19:22:28.337Z,52.00
2023-05-10T19:25:04.529Z,52.20
2023-05-10T19:27:32.232Z,52.70
2023-05-10T19:29:59.115Z,53.80
2023-05-10T19:32:26.248Z,54.90
2023-05-10T19:34:53.147Z,55.70
2023-05-10T19:37:20.013Z,56.70
2023-05-10T19:39:47.246Z,56.90
2023-05-10T19:42:14.210Z,57.60
2023-05-10T19:44:41.184Z,58.20
2023-05-10T19:47:09.130Z,58.70
2023-05-10T19:49:39.138Z,59.20
2023-05-10T19:52:07.885Z,59.20
2023-05-10T19:54:34.792Z,59.70
2023-05-10T19:57:01.762Z,60.10
2023-05-10T19:59:28.755Z,59.90
2023-05-10T20:01:55.879Z,60.40
2023-05-10T20:04:23.048Z,61.60
2023-05-10T20:06:49.976Z,61.20
2023-05-10T20:09:16.869Z,61.50
2023-05-10T20:11:43.773Z,62.00
2023-05-10T20:14:10.955Z,62.20
2023-05-10T20:16:37.909Z,62.40
2023-05-10T20:19:05.017Z,63.10
2023-05-10T20:21:33.474Z,63.50
2023-05-10T20:24:00.384Z,64.00
2023-05-10T20:26:27.275Z,64.20
2023-05-10T20:28:54.164Z,64.50
2023-05-10T20:31:21.096Z,64.40
2023-05-10T20:33:48.010Z,64.60
2023-05-10T20:36:14.975Z,65.00
2023-05-10T20:38:41.911Z,66.10
2023-05-10T20:41:08.852Z,66.00
2023-05-10T20:43:35.806Z,66.70
2023-05-10T20:46:05.464Z,67.30
2023-05-10T20:48:33.101Z,67.40
2023-05-10T20:51:02.072Z,67.90
2023-05-10T20:53:29.674Z,68.20
2023-05-10T20:55:56.581Z,69.60
2023-05-10T20:58:23.486Z,69.40
2023-05-10T21:00:50.467Z,69.30
2023-05-10T21:03:17.370Z,69.20
2023-05-10T21:05:44.311Z,69.70
2023-05-10T21:08:11.210Z,69.90
2023-05-10T21:10:38.094Z,70.10
2023-05-10T21:13:05.236Z,70.20
2023-05-10T21:15:32.122Z,71.90
2023-05-10T21:17:59.898Z,71.40
2023-05-10T21:20:26.947Z,71.60
2023-05-10T21:22:53.852Z,71.30
2023-05-10T21:25:22.084Z,73.00
2023-05-10T21:27:49.069Z,74.40
2023-05-10T21:30:16.266Z,74.90
2023-05-10T21:32:43.340Z,75.30
2023-05-10T21:35:10.395Z,75.60
2023-05-10T21:37:37.275Z,76.00
2023-05-10T21:40:04.727Z,76.00
2023-05-10T21:42:32.127Z,76.20
2023-05-10T21:44:59.092Z,76.30
2023-05-10T21:47:26.008Z,76.40
2023-05-10T21:49:52.895Z,76.60
2023-05-10T21:52:19.788Z,77.00
2023-05-10T21:54:46.766Z,76.30
2023-05-10T21:57:13.656Z,76.20
2023-05-10T21:59:40.598Z,76.10
2023-05-10T22:02:07.724Z,75.90
2023-05-10T22:04:34.868Z,75.70
2023-05-10T22:07:01.768Z,75.70
2023-05-10T22:09:28.702Z,75.60
2023-05-10T22:11:55.616Z,75.70
2023-05-10T22:14:23.029Z,75.90
2023-05-10T22:16:50.046Z,75.90
2023-05-10T22:19:16.974Z,76.80
2023-05-10T22:21:43.915Z,77.50
2023-05-10T22:24:10.811Z,77.60
2023-05-10T22:26:37.703Z,78.40
2023-05-10T22:29:04.592Z,78.30
2023-05-10T22:31:31.742Z,78.10
2023-05-10T22:33:58.776Z,78.40
2023-05-10T22:36:25.673Z,78.70
2023-05-10T22:38:52.549Z,77.80
2023-05-10T22:41:19.431Z,77.80
2023-05-10T22:43:46.432Z,77.60
2023-05-10T22:46:13.463Z,77.50
2023-05-10T22:48:41.436Z,77.50
2023-05-10T22:51:08.347Z,77.50
2023-05-10T22:53:35.505Z,77.40
2023-05-10T22:56:02.647Z,77.70
2023-05-10T22:58:29.570Z,77.70
2023-05-10T23:00:56.503Z,77.60
2023-05-10T23:03:23.448Z,77.60
2023-05-10T23:05:50.346Z,77.50
2023-05-10T23:08:17.477Z,77.30
2023-05-10T23:10:44.390Z,77.60
2023-05-10T23:13:11.276Z,77.40
2023-05-10T23:15:40.057Z,78.00
2023-05-10T23:18:06.992Z,78.10
2023-05-10T23:20:33.909Z,78.00
2023-05-10T23:23:00.811Z,78.50
2023-05-10T23:25:27.768Z,78.50
2023-05-10T23:27:54.700Z,78.60
2023-05-10T23:30:21.651Z,78.40
2023-05-10T23:32:48.575Z,78.80
2023-05-10T23:35:15.564Z,78.90
2023-05-10T23:37:42.997Z,79.20
2023-05-10T23:40:10.302Z,79.30
2023-05-10T23:42:37.226Z,79.30
2023-05-10T23:45:04.624Z,79.30
2023-05-10T23:47:31.531Z,79.40
2023-05-10T23:49:58.513Z,79.50
2023-05-10T23:52:25.610Z,79.60
2023-05-10T23:54:53.433Z,79.70
2023-05-10T23:57:20.817Z,79.70
2023-05-10T23:59:47.802Z,79.70
